createdAt,value
2023-05-13T00:01:59.975Z,40.66
2023-05-13T00:04:32.839Z,40.61
2023-05-13T00:07:05.970Z,40.64
2023-05-13T00:09:40.193Z,40.72
2023-05-13T00:12:13.091Z,40.81
2023-05-13T00:14:46.222Z,40.86
2023-05-13T00:17:19.276Z,41.06
2023-05-13T00:19:52.484Z,41.06
2023-05-13T00:22:25.330Z,41.15
2023-05-13T00:24:59.586Z,41.28
2023-05-13T00:27:32.898Z,41.30
2023-05-13T00:30:06.958Z,41.71
2023-05-13T00:32:39.872Z,41.78
2023-05-13T00:35:14.829Z,41.97
2023-05-13T00:37:47.765Z,41.79
2023-05-13T00:40:24.361Z,42.07
2023-05-13T00:42:57.401Z,42.08
2023-05-13T00:45:31.264Z,42.17
2023-05-13T00:48:07.783Z,42.49
2023-05-13T00:50:42.284Z,42.63
2023-05-13T00:53:16.098Z,42.73
2023-05-13T00:55:50.155Z,41.85
2023-05-13T00:58:22.991Z,42.44
2023-05-13T01:01:04.076Z,42.61
2023-05-13T01:03:46.438Z,42.97
2023-05-13T01:06:24.008Z,43.27
2023-05-13T01:09:04.318Z,43.34
2023-05-13T01:11:42.280Z,43.55
2023-05-13T01:14:20.617Z,43.63
2023-05-13T01:17:00.347Z,43.82
2023-05-13T01:19:43.029Z,44.03
2023-05-13T01:22:17.711Z,44.31
2023-05-13T01:24:50.926Z,44.59
2023-05-13T01:27:25.233Z,44.58
2023-05-13T01:29:58.716Z,44.96
2023-05-13T01:32:36.497Z,45.04
2023-05-13T01:35:10.427Z,44.09
2023-05-13T01:37:48.875Z,44.94
2023-05-13T01:40:32.467Z,45.36
2023-05-13T01:43:11.557Z,45.67
2023-05-13T01:45:44.502Z,45.64
2023-05-13T01:48:19.678Z,46.03
2023-05-13T01:50:54.579Z,46.17
2023-05-13T01:53:28.867Z,46.33
2023-05-13T01:56:01.760Z,46.38
2023-05-13T01:58:34.671Z,46.70
2023-05-13T02:01:07.755Z,46.83
2023-05-13T02:03:40.686Z,46.93
2023-05-13T02:06:13.727Z,47.31
2023-05-13T02:08:48.084Z,47.35
2023-05-13T02:11:21.867Z,47.74
2023-05-13T02:13:54.500Z,46.52
2023-05-13T02:16:27.369Z,47.29
2023-05-13T02:19:00.320Z,47.59
2023-05-13T02:21:34.550Z,48.09
2023-05-13T02:24:09.047Z,48.30
2023-05-13T02:26:42.596Z,47.96
2023-05-13T02:29:15.921Z,48.26
2023-05-13T02:31:48.809Z,48.37
2023-05-13T02:34:21.740Z,48.25
2023-05-13T02:36:54.564Z,48.25
2023-05-13T02:39:28.852Z,48.59
2023-05-13T02:42:03.983Z,48.61
2023-05-13T02:44:38.571Z,48.64
2023-05-13T02:47:11.604Z,48.65
2023-05-13T02:49:44.646Z,48.50
2023-05-13T02:52:17.701Z,48.72
2023-05-13T02:54:51.965Z,48.54
2023-05-13T02:57:27.867Z,48.62
2023-05-13T03:00:00.810Z,48.73
2023-05-13T03:02:33.980Z,48.98
2023-05-13T03:05:08.061Z,49.09
2023-05-13T03:07:41.229Z,49.24
2023-05-13T03:10:15.469Z,49.28
2023-05-13T03:12:48.426Z,49.42
2023-05-13T03:15:21.353Z,49.21
2023-05-13T03:17:54.208Z,49.55
2023-05-13T03:20:27.534Z,49.53
2023-05-13T03:23:00.454Z,49.58
2023-05-13T03:25:34.730Z,49.57
2023-05-13T03:28:09.914Z,49.97
2023-05-13T03:30:47.386Z,50.00
2023-05-13T03:33:24.042Z,50.06
2023-05-13T03:35:57.057Z,50.05
2023-05-13T03:38:34.498Z,50.06
2023-05-13T03:41:08.791Z,49.82
2023-05-13T03:43:41.648Z,49.50
2023-05-13T03:46:16.963Z,49.46
2023-05-13T03:48:50.490Z,49.17
2023-05-13T03:51:23.484Z,49.13
2023-05-13T03:53:57.027Z,49.00
2023-05-13T03:56:31.510Z,49.04
2023-05-13T03:59:05.445Z,49.20
2023-05-13T04:01:38.366Z,48.94
2023-05-13T04:04:11.219Z,49.05
2023-05-13T04:06:44.160Z,48.58
2023-05-13T04:09:17.111Z,48.52
2023-05-13T04:11:51.433Z,48.46
2023-05-13T04:14:24.257Z,47.97
2023-05-13T04:16:57.130Z,47.68
2023-05-13T04:19:29.967Z,47.76
2023-05-13T04:22:02.856Z,47.67
2023-05-13T04:24:35.726Z,47.32
2023-05-13T04:27:09.888Z,47.33
2023-05-13T04:29:43.949Z,47.80
2023-05-13T04:32:21.713Z,48.01
2023-05-13T04:34:56.757Z,47.54
2023-05-13T04:37:31.695Z,47.44
2023-05-13T04:40:09.647Z,47.61
2023-05-13T04:42:43.846Z,47.33
2023-05-13T04:45:17.144Z,46.72
2023-05-13T04:47:50.105Z,46.28
2023-05-13T04:50:23.255Z,46.03
2023-05-13T04:52:56.698Z,45.39
2023-05-13T04:55:29.804Z,45.06
2023-05-13T04:58:04.359Z,45.06
2023-05-13T05:00:37.433Z,44.79
2023-05-13T05:03:10.355Z,44.17
2023-05-13T05:05:43.611Z,44.10
2023-05-13T05:08:18.157Z,43.82
2023-05-13T05:10:53.189Z,43.08
2023-05-13T05:13:27.615Z,42.69
2023-05-13T05:16:00.487Z,42.90
2023-05-13T05:18:33.441Z,42.48
2023-05-13T05:21:06.357Z,42.38
2023-05-13T05:23:39.526Z,41.82
2023-05-13T05:26:12.789Z,41.67
2023-05-13T05:28:50.076Z,41.38
2023-05-13T05:31:24.017Z,41.25
2023-05-13T05:33:57.343Z,40.99
2023-05-13T05:36:31.229Z,40.50
2023-05-13T05:39:04.228Z,39.90
2023-05-13T05:41:39.205Z,39.87
2023-05-13T05:44:14.469Z,40.05
2023-05-13T05:46:47.881Z,39.67
2023-05-13T05:49:20.882Z,39.02
2023-05-13T05:51:55.104Z,38.93
2023-05-13T05:54:28.593Z,38.92
2023-05-13T05:57:01.485Z,39.04
2023-05-13T05:59:35.682Z,38.70
2023-05-13T06:02:08.662Z,39.30
2023-05-13T06:04:42.221Z,38.76
2023-05-13T06:07:15.374Z,37.84
2023-05-13T06:09:48.663Z,37.37
2023-05-13T06:12:22.782Z,37.23
2023-05-13T06:14:57.040Z,37.47
2023-05-13T06:17:29.966Z,36.42
2023-05-13T06:20:04.604Z,35.95
2023-05-13T06:22:37.501Z,35.03
2023-05-13T06:25:10.938Z,35.07
2023-05-13T06:27:44.254Z,35.05
2023-05-13T06:30:18.674Z,35.11
2023-05-13T06:33:01.738Z,34.46
2023-05-13T06:35:36.042Z,34.21
2023-05-13T06:38:11.081Z,33.75
2023-05-13T06:40:44.028Z,32.76
2023-05-13T06:43:18.193Z,33.29
2023-05-13T06:45:55.561Z,32.56
2023-05-13T06:48:28.670Z,32.28
2023-05-13T06:51:01.565Z,32.04
2023-05-13T06:53:34.417Z,33.36
2023-05-13T06:56:08.026Z,32.08
2023-05-13T06:58:40.884Z,30.89
2023-05-13T07:01:15.952Z,30.32
2023-05-13T07:03:48.900Z,29.43
2023-05-13T07:06:21.891Z,29.49
2023-05-13T07:08:54.819Z,29.04
2023-05-13T07:11:28.997Z,28.93
2023-05-13T07:14:01.846Z,28.50
2023-05-13T07:16:36.112Z,28.43
2023-05-13T07:19:09.101Z,28.35
2023-05-13T07:21:41.989Z,28.31
2023-05-13T07:24:15.182Z,28.45
2023-05-13T07:26:48.055Z,28.13
2023-05-13T07:29:22.996Z,28.00
2023-05-13T07:31:57.292Z,27.84
2023-05-13T07:34:30.190Z,27.00
2023-05-13T07:37:04.520Z,26.77
2023-05-13T07:39:37.420Z,26.46
2023-05-13T07:42:10.292Z,26.32
2023-05-13T07:44:43.182Z,25.25
2023-05-13T07:47:17.516Z,25.30
2023-05-13T07:49:50.720Z,24.62
2023-05-13T07:52:23.694Z,24.40
2023-05-13T07:54:56.630Z,24.05
2023-05-13T07:57:29.563Z,23.91
2023-05-13T08:00:02.457Z,23.61
2023-05-13T08:02:47.057Z,23.16
2023-05-13T08:05:20.086Z,22.67
2023-05-13T08:07:52.961Z,23.11
2023-05-13T08:10:25.960Z,21.86
2023-05-13T08:13:01.000Z,21.31
2023-05-13T08:15:33.954Z,20.78
2023-05-13T08:18:08.283Z,20.94
2023-05-13T08:20:41.431Z,20.64
2023-05-13T08:23:14.082Z,21.42
2023-05-13T08:25:46.996Z,20.48
2023-05-13T08:28:19.887Z,19.56
2023-05-13T08:30:52.769Z,19.12
2023-05-13T08:33:27.013Z,19.36
2023-05-13T08:36:01.157Z,18.28
2023-05-13T08:38:34.484Z,17.65
2023-05-13T08:41:07.861Z,16.59
2023-05-13T08:43:41.289Z,15.60
2023-05-13T08:46:17.562Z,13.90
2023-05-13T08:48:52.551Z,12.44
2023-05-13T08:51:25.705Z,12.73
2023-05-13T08:53:58.921Z,11.29
2023-05-13T08:56:31.987Z,10.80
2023-05-13T08:59:04.972Z,10.31
2023-05-13T09:01:38.724Z,9.66
2023-05-13T09:04:13.188Z,8.75
2023-05-13T09:06:48.240Z,8.95
2023-05-13T09:09:21.214Z,8.71
2023-05-13T09:11:54.131Z,8.58
2023-05-13T09:14:31.268Z,8.25
2023-05-13T09:17:04.399Z,7.83
2023-05-13T09:19:38.850Z,7.80
2023-05-13T09:22:18.543Z,8.21
2023-05-13T09:24:55.758Z,7.66
2023-05-13T09:27:38.262Z,7.78
2023-05-13T09:30:12.142Z,7.58
2023-05-13T09:32:45.120Z,6.82
2023-05-13T09:35:19.692Z,7.22
2023-05-13T09:37:52.766Z,6.61
2023-05-13T09:40:25.841Z,6.53
2023-05-13T09:43:00.046Z,6.37
2023-05-13T09:45:33.901Z,6.33
2023-05-13T09:48:07.274Z,6.19
2023-05-13T09:50:49.967Z,6.47
2023-05-13T09:53:22.929Z,6.58
2023-05-13T09:55:57.920Z,7.12
2023-05-13T09:58:31.290Z,7.79
2023-05-13T10:01:05.718Z,7.85
2023-05-13T10:03:38.952Z,7.74
2023-05-13T10:06:13.397Z,8.02
2023-05-13T10:08:48.463Z,7.60
2023-05-13T10:11:21.650Z,7.56
2023-05-13T10:14:02.949Z,7.54
2023-05-13T10:16:36.290Z,7.43
2023-05-13T10:19:09.981Z,7.21
2023-05-13T10:21:45.440Z,8.08
2023-05-13T10:24:18.588Z,7.68
2023-05-13T10:26:53.361Z,7.93
2023-05-13T10:29:27.564Z,8.44
2023-05-13T10:32:01.288Z,8.92
2023-05-13T10:34:35.600Z,9.26
2023-05-13T10:37:26.808Z,9.70
2023-05-13T10:40:13.923Z,10.65
2023-05-13T10:42:57.477Z,10.86
2023-05-13T10:45:34.473Z,11.01
2023-05-13T10:48:08.457Z,11.33
2023-05-13T10:50:41.526Z,11.22
2023-05-13T10:53:22.080Z,12.45
2023-05-13T10:55:57.237Z,12.35
2023-05-13T10:58:31.026Z,12.85
2023-05-13T11:01:18.975Z,12.85
2023-05-13T11:03:54.264Z,12.61
2023-05-13T11:06:34.757Z,12.71
2023-05-13T11:09:13.050Z,12.90
2023-05-13T11:11:49.529Z,13.16
2023-05-13T11:14:23.571Z,13.21
2023-05-13T11:17:09.832Z,13.53
2023-05-13T11:19:46.952Z,13.83
2023-05-13T11:22:22.224Z,14.23
2023-05-13T11:25:07.794Z,14.42
2023-05-13T11:27:41.955Z,14.99
2023-05-13T11:30:23.905Z,15.75
2023-05-13T11:32:58.448Z,15.36
2023-05-13T11:35:32.972Z,15.43
2023-05-13T11:38:06.489Z,15.92
2023-05-13T11:40:41.517Z,15.87
2023-05-13T11:43:21.468Z,15.80
2023-05-13T11:45:55.529Z,16.50
2023-05-13T11:48:30.089Z,16.57
2023-05-13T11:51:02.993Z,16.59
2023-05-13T11:53:35.867Z,17.01
2023-05-13T11:56:13.627Z,17.19
2023-05-13T11:58:46.475Z,17.39
2023-05-13T12:01:19.409Z,17.59
2023-05-13T12:03:52.171Z,17.38
2023-05-13T12:06:25.221Z,18.01
2023-05-13T12:09:05.626Z,17.42
2023-05-13T12:11:41.466Z,17.83
2023-05-13T12:14:14.493Z,18.02
2023-05-13T12:16:47.349Z,17.69
2023-05-13T12:19:21.146Z,17.95
2023-05-13T12:21:54.094Z,18.37
2023-05-13T12:24:27.262Z,18.82
2023-05-13T12:27:10.102Z,17.85
2023-05-13T12:29:44.545Z,17.79
2023-05-13T12:32:17.818Z,17.94
2023-05-13T12:34:51.682Z,17.86
2023-05-13T12:37:26.349Z,17.92
2023-05-13T12:40:11.634Z,18.29
2023-05-13T12:42:47.014Z,18.88
2023-05-13T12:45:20.136Z,19.96
2023-05-13T12:47:53.724Z,19.49
2023-05-13T12:50:27.334Z,19.47
2023-05-13T12:53:03.649Z,19.42
2023-05-13T12:55:39.978Z,19.22
2023-05-13T12:58:14.577Z,19.17
2023-05-13T13:00:47.635Z,19.10
2023-05-13T13:03:23.282Z,18.95
2023-05-13T13:05:58.169Z,18.72
2023-05-13T13:11:19.372Z,18.19
2023-05-13T13:13:52.283Z,19.05
2023-05-13T13:16:25.251Z,19.08
2023-05-13T13:19:01.472Z,18.81
2023-05-13T13:21:34.731Z,18.55
2023-05-13T13:24:08.685Z,18.91
2023-05-13T13:26:43.155Z,19.01
2023-05-13T13:29:16.110Z,18.98
2023-05-13T13:31:49.166Z,19.27
2023-05-13T13:34:22.058Z,19.39
2023-05-13T13:36:55.203Z,19.89
2023-05-13T13:39:28.072Z,19.57
2023-05-13T13:42:04.652Z,20.88
2023-05-13T13:44:39.477Z,19.93
2023-05-13T13:47:12.514Z,20.24
2023-05-13T13:49:45.444Z,20.18
2023-05-13T13:52:18.823Z,20.80
2023-05-13T13:54:51.797Z,20.24
2023-05-13T13:57:26.067Z,20.08
2023-05-13T13:59:59.114Z,20.54
2023-05-13T14:02:32.160Z,20.09
2023-05-13T14:05:05.934Z,20.58
2023-05-13T14:07:38.979Z,19.99
2023-05-13T14:10:11.966Z,20.28
2023-05-13T14:12:46.211Z,20.68
2023-05-13T14:15:19.151Z,20.34
2023-05-13T14:17:52.049Z,20.08
2023-05-13T14:20:25.771Z,20.62
2023-05-13T14:22:58.699Z,20.35
2023-05-13T14:25:31.678Z,19.83
2023-05-13T14:28:06.291Z,20.36
2023-05-13T14:30:39.321Z,20.01
2023-05-13T14:33:12.203Z,19.85
2023-05-13T14:35:45.308Z,20.27
2023-05-13T14:38:18.195Z,20.69
2023-05-13T14:40:51.065Z,20.81
2023-05-13T14:43:29.470Z,20.94
2023-05-13T14:46:02.429Z,20.67
2023-05-13T14:48:35.461Z,20.60
2023-05-13T14:51:08.390Z,20.17
2023-05-13T14:53:41.269Z,19.90
2023-05-13T14:56:14.234Z,20.22
2023-05-13T14:58:48.511Z,20.63
2023-05-13T15:01:21.461Z,20.36
2023-05-13T15:03:54.462Z,20.74
2023-05-13T15:06:27.444Z,20.98
2023-05-13T15:09:00.433Z,20.46
2023-05-13T15:11:33.302Z,20.87
2023-05-13T15:14:07.596Z,20.84
2023-05-13T15:16:40.581Z,20.96
2023-05-13T15:19:16.515Z,21.39
2023-05-13T15:21:49.428Z,21.06
2023-05-13T15:24:22.334Z,20.99
2023-05-13T15:26:55.182Z,21.04
2023-05-13T15:29:32.088Z,21.39
2023-05-13T15:32:06.422Z,20.95
2023-05-13T15:34:39.377Z,21.07
2023-05-13T15:37:12.314Z,21.05
2023-05-13T15:39:45.365Z,21.42
2023-05-13T15:42:18.289Z,21.07
2023-05-13T15:44:52.484Z,20.93
2023-05-13T15:47:25.627Z,21.26
2023-05-13T15:49:58.465Z,21.27
2023-05-13T15:52:31.510Z,21.06
2023-05-13T15:55:05.196Z,21.32
2023-05-13T15:57:39.803Z,21.42
2023-05-13T16:00:15.828Z,21.64
2023-05-13T16:02:49.046Z,21.24
2023-05-13T16:05:21.793Z,21.09
2023-05-13T16:07:55.954Z,21.22
2023-05-13T16:10:28.903Z,21.26
2023-05-13T16:13:02.516Z,21.45
2023-05-13T16:15:36.936Z,21.83
2023-05-13T16:18:09.893Z,21.78
2023-05-13T16:20:42.772Z,22.01
2023-05-13T16:23:15.770Z,22.47
2023-05-13T16:25:51.044Z,22.71
2023-05-13T16:28:23.904Z,23.01
2023-05-13T16:30:58.734Z,22.92
2023-05-13T16:33:32.438Z,23.11
2023-05-13T16:36:06.732Z,23.61
2023-05-13T16:38:41.403Z,23.75
2023-05-13T16:41:14.458Z,23.91
2023-05-13T16:43:47.584Z,23.91
2023-05-13T16:46:21.855Z,24.05
2023-05-13T16:48:56.195Z,24.18
2023-05-13T16:51:30.032Z,24.40
2023-05-13T16:54:02.913Z,24.67
2023-05-13T16:56:36.604Z,24.41
2023-05-13T16:59:10.324Z,24.58
2023-05-13T17:01:44.538Z,24.47
2023-05-13T17:04:17.555Z,24.54
2023-05-13T17:06:50.576Z,24.84
2023-05-13T17:09:23.464Z,24.82
2023-05-13T17:11:56.555Z,25.13
2023-05-13T17:14:29.625Z,24.91
2023-05-13T17:17:04.164Z,25.40
2023-05-13T17:19:37.094Z,25.09
2023-05-13T17:22:09.917Z,25.14
2023-05-13T17:24:43.040Z,25.42
2023-05-13T17:27:16.023Z,25.34
2023-05-13T17:29:49.046Z,25.29
2023-05-13T17:32:23.383Z,25.60
2023-05-13T17:34:56.289Z,25.73
2023-05-13T17:37:29.161Z,25.84
2023-05-13T17:40:02.703Z,25.97
2023-05-13T17:42:35.570Z,25.77
2023-05-13T17:45:09.715Z,25.85
2023-05-13T17:47:44.061Z,26.26
2023-05-13T17:50:18.301Z,26.22
2023-05-13T17:52:51.315Z,26.11
2023-05-13T17:55:24.189Z,26.19
2023-05-13T17:57:57.253Z,26.01
2023-05-13T18:00:30.085Z,26.30
2023-05-13T18:03:04.321Z,26.28
2023-05-13T18:05:37.323Z,26.32
2023-05-13T18:08:10.342Z,26.61
2023-05-13T18:10:43.324Z,26.59
2023-05-13T18:13:16.423Z,27.00
2023-05-13T18:15:49.378Z,27.46
2023-05-13T18:18:23.801Z,27.33
2023-05-13T18:20:58.434Z,27.47
2023-05-13T18:23:32.673Z,27.88
2023-05-13T18:26:05.700Z,27.92
2023-05-13T18:28:38.502Z,28.11
2023-05-13T18:31:11.525Z,28.68
2023-05-13T18:33:45.862Z,28.52
2023-05-13T18:36:18.816Z,28.63
2023-05-13T18:38:51.678Z,28.90
2023-05-13T18:41:24.581Z,28.79
2023-05-13T18:43:57.446Z,28.82
2023-05-13T18:46:30.478Z,29.15
2023-05-13T18:49:04.988Z,29.58
2023-05-13T18:51:38.091Z,29.95
2023-05-13T18:54:11.114Z,30.01
2023-05-13T18:56:44.927Z,30.04
2023-05-13T18:59:17.863Z,30.14
2023-05-13T19:01:50.846Z,30.10
2023-05-13T19:04:25.451Z,29.82
2023-05-13T19:06:58.420Z,30.03
2023-05-13T19:09:31.321Z,30.52
2023-05-13T19:12:04.316Z,30.59
2023-05-13T19:14:37.288Z,30.94
2023-05-13T19:17:10.680Z,31.05
2023-05-13T19:19:45.074Z,31.50
2023-05-13T19:22:18.002Z,31.55
2023-05-13T19:24:50.869Z,31.88
2023-05-13T19:27:23.751Z,32.03
2023-05-13T19:29:56.642Z,32.11
2023-05-13T19:32:29.721Z,32.39
2023-05-13T19:35:04.729Z,32.58
2023-05-13T19:37:37.592Z,32.73
2023-05-13T19:40:11.401Z,32.65
2023-05-13T19:42:52.522Z,32.92
2023-05-13T19:45:26.485Z,33.17
2023-05-13T19:47:59.458Z,33.16
2023-05-13T19:50:33.790Z,33.31
2023-05-13T19:53:06.734Z,33.48
2023-05-13T19:55:39.535Z,33.71
2023-05-13T19:58:12.861Z,33.85
2023-05-13T20:00:46.336Z,33.82
2023-05-13T20:03:19.063Z,33.03
2023-05-13T20:05:54.082Z,34.12
2023-05-13T20:08:28.450Z,34.15
2023-05-13T20:11:01.293Z,34.32
2023-05-13T20:13:34.168Z,34.58
2023-05-13T20:16:07.658Z,34.68
2023-05-13T20:18:40.420Z,33.88
2023-05-13T20:21:14.835Z,34.75
2023-05-13T20:23:47.699Z,35.09
2023-05-13T20:26:20.525Z,35.25
2023-05-13T20:28:53.422Z,35.45
2023-05-13T20:31:26.358Z,35.80
2023-05-13T20:33:59.265Z,35.74
2023-05-13T20:36:33.770Z,35.89
2023-05-13T20:39:07.681Z,36.04
2023-05-13T20:41:40.713Z,35.94
2023-05-13T20:44:15.841Z,36.09
2023-05-13T20:46:49.977Z,36.05
2023-05-13T20:49:22.820Z,35.93
2023-05-13T20:52:02.567Z,35.64
2023-05-13T20:54:35.861Z,35.60
2023-05-13T20:57:08.789Z,35.47
2023-05-13T20:59:41.625Z,35.53
2023-05-13T21:02:14.485Z,35.54
2023-05-13T21:04:47.332Z,35.63
2023-05-13T21:07:21.551Z,35.60
2023-05-13T21:09:54.467Z,35.37
2023-05-13T21:12:27.456Z,35.97
2023-05-13T21:15:00.345Z,35.86
2023-05-13T21:17:33.254Z,35.60
2023-05-13T21:20:09.887Z,36.07
2023-05-13T21:22:44.169Z,36.16
2023-05-13T21:25:17.200Z,36.27
2023-05-13T21:27:50.078Z,36.57
2023-05-13T21:30:23.197Z,36.53
2023-05-13T21:32:56.244Z,37.19
2023-05-13T21:35:29.144Z,37.44
2023-05-13T21:38:11.516Z,37.23
2023-05-13T21:40:45.454Z,37.44
2023-05-13T21:43:18.330Z,37.69
2023-05-13T21:45:54.178Z,38.02
2023-05-13T21:48:27.156Z,38.17
2023-05-13T21:51:00.006Z,38.34
2023-05-13T21:53:34.806Z,38.45
2023-05-13T21:56:07.940Z,38.90
2023-05-13T21:58:40.785Z,38.88
2023-05-13T22:01:13.685Z,39.61
2023-05-13T22:03:46.720Z,40.45
2023-05-13T22:06:19.658Z,40.90
2023-05-13T22:08:53.947Z,41.33
2023-05-13T22:11:26.868Z,41.69
2023-05-13T22:14:00.141Z,41.80
2023-05-13T22:16:33.086Z,42.10
2023-05-13T22:19:06.183Z,42.21
2023-05-13T22:21:39.580Z,42.47
2023-05-13T22:24:13.904Z,42.43
2023-05-13T22:26:46.830Z,42.41
2023-05-13T22:29:19.729Z,42.15
2023-05-13T22:31:52.764Z,42.13
2023-05-13T22:34:26.446Z,42.44
2023-05-13T22:36:59.157Z,41.48
2023-05-13T22:39:33.422Z,42.42
2023-05-13T22:42:06.642Z,42.74
2023-05-13T22:44:39.922Z,43.28
2023-05-13T22:47:12.751Z,43.44
2023-05-13T22:49:45.656Z,43.72
2023-05-13T22:52:18.510Z,43.80
2023-05-13T22:54:52.745Z,43.97
2023-05-13T22:57:26.537Z,44.03
2023-05-13T22:59:59.609Z,44.01
2023-05-13T23:02:32.583Z,43.89
2023-05-13T23:05:06.106Z,43.86
2023-05-13T23:07:38.946Z,43.11
2023-05-13T23:10:13.297Z,43.56
2023-05-13T23:12:46.246Z,44.03
2023-05-13T23:15:19.188Z,44.08
2023-05-13T23:17:52.146Z,44.27
2023-05-13T23:20:25.173Z,44.30
2023-05-13T23:23:01.212Z,44.63
2023-05-13T23:25:35.388Z,44.77
2023-05-13T23:28:08.407Z,44.85
2023-05-13T23:30:41.609Z,44.85
2023-05-13T23:33:14.415Z,45.06
2023-05-13T23:35:53.933Z,45.36
2023-05-13T23:38:27.070Z,45.41
2023-05-13T23:41:01.203Z,45.37
2023-05-13T23:43:34.160Z,45.65
2023-05-13T23:46:07.084Z,45.68
2023-05-13T23:48:40.300Z,45.85
2023-05-13T23:51:13.114Z,45.93
2023-05-13T23:53:46.024Z,46.12
2023-05-13T23:56:20.302Z,46.23
2023-05-13T23:58:53.159Z,46.47
